CFG4HA EDDF-LEJR
Flight info
| Callsign | CFG4HA |
|---|---|
| Flight time | 2h 42m |
| Altitude | 37000 |
| Route | ANEKI2L/18 ANEKI Y163 HERBI Y164 MOPAN DCT LUTIX DCT BENOT DCT NEMOS DCT NINTU DCT MEBAK DCT REPSI DCT LERGA DCT MINSO DCT NARAK DCT AGN DCT MAQAB DCT TIVLI DCT ELSAP DCT ZAR DCT KONKE DCT TERSA DCT CJN DCT PALIO DCT AKOKI DCT GOTOR DCT KAMPO DCT MONTO DCT MOLIN DCT HIJ |
| Aircraft | A320/M-SDE3FGHIJ1LORVWXYZ/LB1 |
Departure
| Time | 2026-05-01 12:28 |
|---|---|
| Airport | Frankfurt Main Airport (EDDF) |
Arrival
| Time | 2026-05-01 15:10 |
|---|---|
| Airport | Jerez Airport (LEJR) |
| Time | Latitude | Longitude | Altitude | Speed | Heading |
|---|---|---|---|---|---|
| 2026-05-01 11:08 | 50.04437 | 8.56333 | 354 ft | 0 kts | 170° |
| 2026-05-01 12:14 | 50.04443 | 8.56332 | 355 ft | 2 kts | 170° |
| 2026-05-01 12:14 | 50.04457 | 8.56328 | 355 ft | 2 kts | 170° |
| 2026-05-01 12:14 | 50.04472 | 8.56324 | 356 ft | 2 kts | 170° |
| 2026-05-01 12:14 | 50.04487 | 8.56319 | 356 ft | 2 kts | 178° |
| 2026-05-01 12:15 | 50.04501 | 8.56326 | 356 ft | 2 kts | 217° |
| 2026-05-01 12:15 | 50.04511 | 8.56344 | 355 ft | 2 kts | 250° |
| 2026-05-01 12:15 | 50.04515 | 8.56365 | 355 ft | 2 kts | 249° |
| 2026-05-01 12:15 | 50.04519 | 8.56380 | 355 ft | 0 kts | 249° |
| 2026-05-01 12:16 | 50.04519 | 8.56382 | 355 ft | 0 kts | 249° |
| 2026-05-01 12:18 | 50.04519 | 8.56381 | 354 ft | 0 kts | 249° |
| 2026-05-01 12:18 | 50.04517 | 8.56372 | 354 ft | 1 kts | 250° |
| 2026-05-01 12:18 | 50.04510 | 8.56344 | 354 ft | 4 kts | 251° |
| 2026-05-01 12:19 | 50.04490 | 8.56256 | 354 ft | 10 kts | 251° |
| 2026-05-01 12:19 | 50.04462 | 8.56142 | 354 ft | 11 kts | 250° |
| 2026-05-01 12:19 | 50.04419 | 8.56038 | 354 ft | 12 kts | 200° |
| 2026-05-01 12:19 | 50.04335 | 8.56064 | 354 ft | 12 kts | 161° |
| 2026-05-01 12:20 | 50.04262 | 8.56024 | 354 ft | 13 kts | 248° |
| 2026-05-01 12:20 | 50.04227 | 8.55878 | 354 ft | 15 kts | 250° |
| 2026-05-01 12:20 | 50.04185 | 8.55703 | 354 ft | 19 kts | 250° |
| 2026-05-01 12:20 | 50.04135 | 8.55495 | 354 ft | 10 kts | 250° |
| 2026-05-01 12:21 | 50.04134 | 8.55490 | 354 ft | 1 kts | 250° |
| 2026-05-01 12:21 | 50.04107 | 8.55377 | 354 ft | 17 kts | 250° |
| 2026-05-01 12:21 | 50.04064 | 8.55197 | 354 ft | 17 kts | 250° |
| 2026-05-01 12:21 | 50.04021 | 8.55018 | 354 ft | 18 kts | 251° |
| 2026-05-01 12:22 | 50.03976 | 8.54832 | 354 ft | 18 kts | 250° |
| 2026-05-01 12:22 | 50.03932 | 8.54647 | 354 ft | 18 kts | 249° |
| 2026-05-01 12:22 | 50.03885 | 8.54453 | 354 ft | 19 kts | 250° |
| 2026-05-01 12:22 | 50.03817 | 8.54277 | 354 ft | 19 kts | 240° |
| 2026-05-01 12:23 | 50.03769 | 8.54087 | 354 ft | 19 kts | 249° |
| 2026-05-01 12:23 | 50.03721 | 8.53893 | 354 ft | 19 kts | 248° |
| 2026-05-01 12:23 | 50.03674 | 8.53697 | 354 ft | 19 kts | 248° |
| 2026-05-01 12:23 | 50.03625 | 8.53505 | 354 ft | 19 kts | 249° |
| 2026-05-01 12:24 | 50.03578 | 8.53309 | 354 ft | 19 kts | 249° |
| 2026-05-01 12:24 | 50.03532 | 8.53117 | 354 ft | 19 kts | 250° |
| 2026-05-01 12:24 | 50.03488 | 8.52932 | 354 ft | 16 kts | 249° |
| 2026-05-01 12:24 | 50.03444 | 8.52773 | 354 ft | 16 kts | 249° |
| 2026-05-01 12:25 | 50.03408 | 8.52623 | 353 ft | 8 kts | 242° |
| 2026-05-01 12:25 | 50.03384 | 8.52604 | 354 ft | 0 kts | 180° |
| 2026-05-01 12:27 | 50.03374 | 8.52604 | 354 ft | 8 kts | 181° |
| 2026-05-01 12:27 | 50.02319 | 8.52616 | 353 ft | 137 kts | 180° |
| 2026-05-01 12:28 | 50.00084 | 8.52612 | 1144 ft | 165 kts | 176° |
| 2026-05-01 12:28 | 49.98930 | 8.52648 | 1733 ft | 169 kts | 174° |
| 2026-05-01 12:28 | 49.96480 | 8.52833 | 2576 ft | 191 kts | 172° |
| 2026-05-01 12:29 | 49.95113 | 8.52954 | 2889 ft | 207 kts | 173° |
| 2026-05-01 12:29 | 49.93615 | 8.53073 | 3183 ft | 226 kts | 174° |
| 2026-05-01 12:29 | 49.90504 | 8.53289 | 4657 ft | 225 kts | 174° |
| 2026-05-01 12:30 | 49.87373 | 8.53291 | 6071 ft | 231 kts | 186° |
| 2026-05-01 12:30 | 49.85786 | 8.52657 | 6630 ft | 243 kts | 195° |
| 2026-05-01 12:30 | 49.84136 | 8.51748 | 7025 ft | 261 kts | 197° |
| 2026-05-01 12:31 | 49.82395 | 8.50747 | 7532 ft | 274 kts | 198° |
| 2026-05-01 12:31 | 49.80605 | 8.49719 | 8243 ft | 278 kts | 198° |
| 2026-05-01 12:31 | 49.78788 | 8.48671 | 8987 ft | 281 kts | 200° |
| 2026-05-01 12:31 | 49.77165 | 8.47021 | 9658 ft | 292 kts | 225° |
| 2026-05-01 12:32 | 49.76118 | 8.44322 | 10358 ft | 300 kts | 251° |
| 2026-05-01 12:32 | 49.76403 | 8.37720 | 11222 ft | 330 kts | 285° |
| 2026-05-01 12:32 | 49.77023 | 8.34255 | 11558 ft | 345 kts | 285° |
| 2026-05-01 12:33 | 49.77654 | 8.30606 | 12129 ft | 352 kts | 284° |
| 2026-05-01 12:33 | 49.78259 | 8.26960 | 12773 ft | 355 kts | 284° |
| 2026-05-01 12:33 | 49.78854 | 8.23288 | 13411 ft | 358 kts | 284° |
| 2026-05-01 12:33 | 49.79453 | 8.19555 | 14036 ft | 361 kts | 284° |
| 2026-05-01 12:34 | 49.80061 | 8.15751 | 14661 ft | 364 kts | 284° |
| 2026-05-01 12:34 | 49.80663 | 8.11968 | 15269 ft | 366 kts | 284° |
| 2026-05-01 12:34 | 49.81269 | 8.08151 | 15834 ft | 370 kts | 284° |
| 2026-05-01 12:34 | 49.81882 | 8.04287 | 16393 ft | 373 kts | 284° |
| 2026-05-01 12:35 | 49.82497 | 8.00401 | 16947 ft | 376 kts | 284° |
| 2026-05-01 12:35 | 49.83116 | 7.96469 | 17482 ft | 379 kts | 284° |
| 2026-05-01 12:35 | 49.83741 | 7.92500 | 18032 ft | 382 kts | 284° |
| 2026-05-01 12:35 | 49.84367 | 7.88501 | 18572 ft | 384 kts | 284° |
| 2026-05-01 12:36 | 49.84997 | 7.84471 | 19114 ft | 386 kts | 284° |
| 2026-05-01 12:36 | 49.85628 | 7.80424 | 19635 ft | 388 kts | 284° |
| 2026-05-01 12:36 | 49.86255 | 7.76402 | 20141 ft | 390 kts | 284° |
| 2026-05-01 12:36 | 49.86901 | 7.72312 | 20634 ft | 392 kts | 284° |
| 2026-05-01 12:37 | 49.87548 | 7.68184 | 21123 ft | 394 kts | 284° |
| 2026-05-01 12:37 | 49.88186 | 7.64064 | 21596 ft | 396 kts | 284° |
| 2026-05-01 12:37 | 49.88818 | 7.59971 | 22049 ft | 399 kts | 284° |
| 2026-05-01 12:37 | 49.89469 | 7.55744 | 22515 ft | 400 kts | 284° |
| 2026-05-01 12:38 | 49.90105 | 7.51601 | 22953 ft | 402 kts | 284° |
| 2026-05-01 12:38 | 49.90750 | 7.47388 | 23401 ft | 404 kts | 284° |
| 2026-05-01 12:38 | 49.91397 | 7.43156 | 23839 ft | 406 kts | 284° |
| 2026-05-01 12:38 | 49.92045 | 7.38903 | 24263 ft | 408 kts | 284° |
| 2026-05-01 12:39 | 49.92703 | 7.34578 | 24675 ft | 410 kts | 284° |
| 2026-05-01 12:39 | 49.93349 | 7.30323 | 25058 ft | 412 kts | 284° |
| 2026-05-01 12:39 | 49.94006 | 7.25988 | 25422 ft | 414 kts | 284° |
| 2026-05-01 12:39 | 49.94662 | 7.21649 | 25789 ft | 416 kts | 284° |
| 2026-05-01 12:40 | 49.95319 | 7.17281 | 26149 ft | 418 kts | 284° |
| 2026-05-01 12:40 | 49.95985 | 7.12848 | 26503 ft | 420 kts | 284° |
| 2026-05-01 12:40 | 49.96642 | 7.08467 | 26844 ft | 422 kts | 284° |
| 2026-05-01 12:40 | 49.97300 | 7.04059 | 27178 ft | 424 kts | 284° |
| 2026-05-01 12:41 | 49.97960 | 6.99612 | 27505 ft | 425 kts | 284° |
| 2026-05-01 12:41 | 49.98602 | 6.95149 | 27836 ft | 427 kts | 282° |
| 2026-05-01 12:41 | 49.99025 | 6.90590 | 28139 ft | 429 kts | 276° |
| 2026-05-01 12:41 | 49.99168 | 6.85962 | 28425 ft | 431 kts | 270° |
| 2026-05-01 12:42 | 49.99079 | 6.81299 | 28723 ft | 433 kts | 268° |
| 2026-05-01 12:42 | 49.98934 | 6.76619 | 29000 ft | 435 kts | 268° |
| 2026-05-01 12:42 | 49.98781 | 6.71956 | 29266 ft | 437 kts | 268° |
| 2026-05-01 12:42 | 49.98630 | 6.67218 | 29535 ft | 439 kts | 268° |
| 2026-05-01 12:43 | 49.98425 | 6.62503 | 29798 ft | 440 kts | 264° |
| 2026-05-01 12:43 | 49.97964 | 6.57849 | 30049 ft | 442 kts | 259° |
| 2026-05-01 12:43 | 49.97224 | 6.53246 | 30279 ft | 444 kts | 253° |
| 2026-05-01 12:43 | 49.96205 | 6.48736 | 30499 ft | 446 kts | 248° |
| 2026-05-01 12:44 | 49.94978 | 6.44252 | 30726 ft | 448 kts | 247° |
| 2026-05-01 12:44 | 49.93747 | 6.39897 | 30954 ft | 449 kts | 246° |
| 2026-05-01 12:44 | 49.91225 | 6.30984 | 31421 ft | 451 kts | 246° |
| 2026-05-01 12:45 | 49.88713 | 6.22161 | 31862 ft | 452 kts | 246° |
| 2026-05-01 12:45 | 49.87400 | 6.17718 | 32142 ft | 451 kts | 243° |
| 2026-05-01 12:45 | 49.85967 | 6.13489 | 32423 ft | 449 kts | 240° |
| 2026-05-01 12:46 | 49.84351 | 6.09311 | 32694 ft | 447 kts | 237° |
| 2026-05-01 12:46 | 49.82616 | 6.05352 | 32945 ft | 446 kts | 234° |
| 2026-05-01 12:46 | 49.80827 | 6.01463 | 33182 ft | 446 kts | 234° |
| 2026-05-01 12:46 | 49.79053 | 5.97606 | 33412 ft | 445 kts | 234° |
| 2026-05-01 12:47 | 49.77284 | 5.93641 | 33646 ft | 445 kts | 236° |
| 2026-05-01 12:47 | 49.75678 | 5.89625 | 33869 ft | 445 kts | 239° |
| 2026-05-01 12:47 | 49.74198 | 5.85415 | 34102 ft | 444 kts | 243° |
| 2026-05-01 12:47 | 49.72887 | 5.81115 | 34338 ft | 443 kts | 246° |
| 2026-05-01 12:48 | 49.71745 | 5.76747 | 34570 ft | 442 kts | 249° |
| 2026-05-01 12:48 | 49.70708 | 5.72293 | 34786 ft | 441 kts | 250° |
| 2026-05-01 12:48 | 49.69681 | 5.67838 | 34990 ft | 441 kts | 250° |
| 2026-05-01 12:48 | 49.68661 | 5.63425 | 35186 ft | 440 kts | 250° |
| 2026-05-01 12:49 | 49.67636 | 5.59009 | 35376 ft | 439 kts | 249° |
| 2026-05-01 12:49 | 49.66611 | 5.54613 | 35529 ft | 439 kts | 249° |
| 2026-05-01 12:49 | 49.65571 | 5.50161 | 35656 ft | 440 kts | 249° |
| 2026-05-01 12:49 | 49.64542 | 5.45773 | 35762 ft | 441 kts | 249° |
| 2026-05-01 12:50 | 49.63497 | 5.41332 | 35872 ft | 442 kts | 249° |
| 2026-05-01 12:50 | 49.62455 | 5.36907 | 35982 ft | 443 kts | 250° |
| 2026-05-01 12:50 | 49.61462 | 5.32410 | 36092 ft | 443 kts | 250° |
| 2026-05-01 12:50 | 49.60511 | 5.27900 | 36195 ft | 444 kts | 251° |
| 2026-05-01 12:51 | 49.58681 | 5.18816 | 36382 ft | 446 kts | 253° |
| 2026-05-01 12:51 | 49.57060 | 5.09678 | 36580 ft | 446 kts | 253° |
| 2026-05-01 12:52 | 49.56244 | 5.05069 | 36684 ft | 446 kts | 253° |
| 2026-05-01 12:52 | 49.54610 | 4.95889 | 36875 ft | 447 kts | 253° |
| 2026-05-01 12:52 | 49.53785 | 4.91279 | 36961 ft | 447 kts | 253° |
| 2026-05-01 12:53 | 49.52136 | 4.82088 | 37133 ft | 448 kts | 253° |
| 2026-05-01 12:53 | 49.51308 | 4.77492 | 37193 ft | 449 kts | 253° |
| 2026-05-01 12:54 | 49.49635 | 4.68243 | 37205 ft | 450 kts | 253° |
| 2026-05-01 12:54 | 49.47118 | 4.54420 | 37208 ft | 450 kts | 253° |
| 2026-05-01 12:55 | 49.44584 | 4.40591 | 37197 ft | 451 kts | 252° |
| 2026-05-01 12:56 | 49.42876 | 4.31330 | 37202 ft | 451 kts | 252° |
| 2026-05-01 12:56 | 49.41173 | 4.22137 | 37199 ft | 451 kts | 251° |
| 2026-05-01 12:57 | 49.39454 | 4.12913 | 37201 ft | 451 kts | 251° |
| 2026-05-01 12:57 | 49.36404 | 3.99369 | 37196 ft | 448 kts | 244° |
| 2026-05-01 12:58 | 49.33612 | 3.90964 | 37194 ft | 446 kts | 237° |
| 2026-05-01 12:59 | 49.28546 | 3.79057 | 37192 ft | 445 kts | 233° |
| 2026-05-01 12:59 | 49.23421 | 3.67322 | 37194 ft | 445 kts | 234° |
| 2026-05-01 13:00 | 49.18274 | 3.55570 | 37190 ft | 444 kts | 233° |
| 2026-05-01 13:01 | 49.13139 | 3.43898 | 37199 ft | 443 kts | 233° |
| 2026-05-01 13:02 | 49.07978 | 3.32218 | 37193 ft | 444 kts | 233° |
| 2026-05-01 13:07 | 48.69846 | 2.47476 | 37178 ft | 443 kts | 233° |
| 2026-05-01 13:08 | 48.66330 | 2.39791 | 37189 ft | 443 kts | 233° |
| 2026-05-01 13:08 | 48.62851 | 2.32216 | 37171 ft | 442 kts | 232° |
| 2026-05-01 13:09 | 48.58892 | 2.25242 | 37165 ft | 438 kts | 220° |
| 2026-05-01 13:09 | 48.53960 | 2.19935 | 37167 ft | 434 kts | 206° |
| 2026-05-01 13:10 | 48.48390 | 2.16574 | 37155 ft | 433 kts | 193° |
| 2026-05-01 13:10 | 48.42543 | 2.14590 | 37175 ft | 433 kts | 191° |
| 2026-05-01 13:11 | 48.36680 | 2.12710 | 37157 ft | 432 kts | 190° |
| 2026-05-01 13:11 | 48.33718 | 2.11987 | 37340 ft | 433 kts | 187° |
| 2026-05-01 13:11 | 48.30745 | 2.11514 | 37055 ft | 430 kts | 184° |
| 2026-05-01 13:11 | 48.27757 | 2.11281 | 37276 ft | 431 kts | 181° |
| 2026-05-01 13:12 | 48.24762 | 2.11293 | 37212 ft | 431 kts | 178° |
| 2026-05-01 13:12 | 48.18809 | 2.11976 | 37183 ft | 432 kts | 175° |
| 2026-05-01 13:13 | 48.12811 | 2.12412 | 37171 ft | 433 kts | 180° |
| 2026-05-01 13:13 | 48.06838 | 2.11913 | 37175 ft | 433 kts | 186° |
| 2026-05-01 13:14 | 48.00857 | 2.10773 | 37174 ft | 433 kts | 187° |
| 2026-05-01 13:14 | 47.94899 | 2.09642 | 37186 ft | 434 kts | 187° |
| 2026-05-01 13:15 | 47.88937 | 2.08509 | 37187 ft | 434 kts | 187° |
| 2026-05-01 13:15 | 47.82933 | 2.07364 | 37185 ft | 435 kts | 187° |
| 2026-05-01 13:16 | 47.76976 | 2.06230 | 37192 ft | 434 kts | 188° |
| 2026-05-01 13:16 | 47.71007 | 2.05098 | 37174 ft | 434 kts | 188° |
| 2026-05-01 13:17 | 47.59284 | 2.01226 | 37169 ft | 433 kts | 199° |
| 2026-05-01 13:18 | 47.50892 | 1.96443 | 37171 ft | 432 kts | 202° |
| 2026-05-01 13:18 | 47.45284 | 1.93202 | 37167 ft | 432 kts | 202° |
| 2026-05-01 13:19 | 47.39710 | 1.89986 | 37173 ft | 433 kts | 202° |
| 2026-05-01 13:20 | 47.31293 | 1.85138 | 37173 ft | 433 kts | 202° |
| 2026-05-01 13:20 | 47.25713 | 1.81931 | 37177 ft | 434 kts | 202° |
| 2026-05-01 13:21 | 47.17289 | 1.77130 | 37178 ft | 434 kts | 202° |
| 2026-05-01 13:21 | 47.11648 | 1.73965 | 37177 ft | 435 kts | 203° |
| 2026-05-01 13:22 | 47.06009 | 1.70799 | 37177 ft | 435 kts | 203° |
| 2026-05-01 13:22 | 47.00379 | 1.67640 | 37175 ft | 435 kts | 203° |
| 2026-05-01 13:23 | 46.94748 | 1.64487 | 37182 ft | 435 kts | 203° |
| 2026-05-01 13:23 | 46.89108 | 1.61336 | 37194 ft | 434 kts | 203° |
| 2026-05-01 13:24 | 46.83450 | 1.58181 | 37189 ft | 434 kts | 203° |
| 2026-05-01 13:25 | 46.75023 | 1.53496 | 37190 ft | 434 kts | 203° |
| 2026-05-01 13:25 | 46.69403 | 1.50380 | 37182 ft | 435 kts | 203° |
| 2026-05-01 13:26 | 46.63752 | 1.47255 | 37178 ft | 435 kts | 203° |
| 2026-05-01 13:26 | 46.58120 | 1.44146 | 37181 ft | 435 kts | 203° |
| 2026-05-01 13:27 | 46.52486 | 1.41044 | 37185 ft | 435 kts | 203° |
| 2026-05-01 13:27 | 46.44033 | 1.36401 | 37191 ft | 434 kts | 203° |
| 2026-05-01 13:28 | 46.35571 | 1.31770 | 37175 ft | 434 kts | 202° |
| 2026-05-01 13:29 | 46.24323 | 1.25635 | 37187 ft | 434 kts | 202° |
| 2026-05-01 13:31 | 46.07428 | 1.16470 | 37180 ft | 435 kts | 202° |
| 2026-05-01 13:31 | 45.98965 | 1.11899 | 37305 ft | 434 kts | 202° |
| 2026-05-01 13:32 | 45.93324 | 1.08861 | 37195 ft | 433 kts | 202° |
| 2026-05-01 13:33 | 45.79810 | 0.99681 | 37361 ft | 433 kts | 214° |
| 2026-05-01 13:34 | 45.74974 | 0.94671 | 37191 ft | 431 kts | 220° |
| 2026-05-01 13:34 | 45.70377 | 0.89175 | 37163 ft | 431 kts | 220° |
| 2026-05-01 13:35 | 45.63512 | 0.80985 | 37156 ft | 431 kts | 220° |
| 2026-05-01 13:36 | 45.56640 | 0.72812 | 37152 ft | 430 kts | 220° |
| 2026-05-01 13:36 | 45.49760 | 0.64653 | 37148 ft | 431 kts | 220° |
| 2026-05-01 13:37 | 45.45139 | 0.59189 | 37147 ft | 431 kts | 220° |
| 2026-05-01 13:37 | 45.40547 | 0.53771 | 37145 ft | 431 kts | 220° |
| 2026-05-01 13:38 | 45.33660 | 0.45666 | 37144 ft | 431 kts | 220° |
| 2026-05-01 13:39 | 45.29033 | 0.40236 | 37142 ft | 431 kts | 220° |
| 2026-05-01 13:39 | 45.24426 | 0.34841 | 37137 ft | 431 kts | 219° |
| 2026-05-01 13:40 | 45.19805 | 0.29440 | 37139 ft | 431 kts | 219° |
| 2026-05-01 13:40 | 45.15210 | 0.24077 | 37137 ft | 431 kts | 219° |
| 2026-05-01 13:41 | 45.10599 | 0.18709 | 37134 ft | 431 kts | 219° |
| 2026-05-01 13:41 | 45.08275 | 0.16007 | 36976 ft | 430 kts | 219° |
| 2026-05-01 13:41 | 45.05991 | 0.13358 | 37083 ft | 430 kts | 219° |
| 2026-05-01 13:42 | 45.01351 | 0.07989 | 37121 ft | 434 kts | 219° |
| 2026-05-01 13:42 | 44.96680 | 0.02602 | 37124 ft | 434 kts | 219° |
| 2026-05-01 13:43 | 44.92024 | -0.02762 | 37244 ft | 433 kts | 219° |
| 2026-05-01 13:43 | 44.89700 | -0.05438 | 36975 ft | 431 kts | 219° |
| 2026-05-01 13:43 | 44.87368 | -0.08120 | 37087 ft | 432 kts | 219° |
| 2026-05-01 13:44 | 44.82723 | -0.13455 | 37129 ft | 433 kts | 219° |
| 2026-05-01 13:44 | 44.78048 | -0.18814 | 37125 ft | 433 kts | 219° |
| 2026-05-01 13:45 | 44.73384 | -0.24150 | 37124 ft | 433 kts | 219° |
| 2026-05-01 13:45 | 44.68744 | -0.29445 | 37123 ft | 433 kts | 219° |
| 2026-05-01 13:46 | 44.64002 | -0.34658 | 37120 ft | 434 kts | 216° |
| 2026-05-01 13:46 | 44.59034 | -0.39454 | 37407 ft | 434 kts | 215° |
| 2026-05-01 13:46 | 44.56587 | -0.41813 | 37221 ft | 433 kts | 215° |
| 2026-05-01 13:47 | 44.54095 | -0.44211 | 37156 ft | 433 kts | 215° |
| 2026-05-01 13:47 | 44.49155 | -0.48959 | 37123 ft | 432 kts | 215° |
| 2026-05-01 13:48 | 44.44210 | -0.53702 | 37117 ft | 432 kts | 215° |
| 2026-05-01 13:48 | 44.39258 | -0.58440 | 37119 ft | 432 kts | 215° |
| 2026-05-01 13:49 | 44.34340 | -0.63141 | 37118 ft | 432 kts | 216° |
| 2026-05-01 13:49 | 44.29366 | -0.67879 | 37110 ft | 432 kts | 215° |
| 2026-05-01 13:50 | 44.24403 | -0.72523 | 37109 ft | 432 kts | 214° |
| 2026-05-01 13:50 | 44.19383 | -0.77123 | 37101 ft | 432 kts | 214° |
| 2026-05-01 13:51 | 44.14381 | -0.81705 | 37099 ft | 433 kts | 214° |
| 2026-05-01 13:51 | 44.09375 | -0.86290 | 37094 ft | 433 kts | 214° |
| 2026-05-01 13:52 | 44.04363 | -0.90874 | 37093 ft | 433 kts | 214° |
| 2026-05-01 13:52 | 43.99335 | -0.95464 | 37091 ft | 433 kts | 214° |
| 2026-05-01 13:53 | 43.94336 | -1.00019 | 37089 ft | 432 kts | 214° |
| 2026-05-01 13:53 | 43.86291 | -1.05633 | 37093 ft | 434 kts | 204° |
| 2026-05-01 13:54 | 43.80701 | -1.08832 | 37092 ft | 434 kts | 204° |
| 2026-05-01 13:54 | 43.75131 | -1.12046 | 37096 ft | 434 kts | 204° |
| 2026-05-01 13:55 | 43.69593 | -1.15255 | 37100 ft | 434 kts | 204° |
| 2026-05-01 13:55 | 43.64032 | -1.18478 | 37106 ft | 435 kts | 204° |
| 2026-05-01 13:56 | 43.58453 | -1.21708 | 37103 ft | 434 kts | 204° |
| 2026-05-01 13:56 | 43.52926 | -1.24902 | 37103 ft | 434 kts | 204° |
| 2026-05-01 13:57 | 43.47350 | -1.28119 | 37101 ft | 435 kts | 204° |
| 2026-05-01 13:57 | 43.41779 | -1.31326 | 37105 ft | 435 kts | 204° |
| 2026-05-01 13:58 | 43.36192 | -1.34535 | 37112 ft | 435 kts | 204° |
| 2026-05-01 13:58 | 43.30617 | -1.37731 | 37122 ft | 435 kts | 205° |
| 2026-05-01 13:59 | 43.25042 | -1.40922 | 37125 ft | 435 kts | 205° |
| 2026-05-01 13:59 | 43.19498 | -1.44090 | 37131 ft | 435 kts | 205° |
| 2026-05-01 14:00 | 43.13913 | -1.47272 | 37148 ft | 435 kts | 205° |
| 2026-05-01 14:00 | 43.08343 | -1.50442 | 37155 ft | 435 kts | 205° |
| 2026-05-01 14:01 | 43.02736 | -1.53625 | 37160 ft | 435 kts | 205° |
| 2026-05-01 14:01 | 42.97160 | -1.56785 | 37161 ft | 436 kts | 205° |
| 2026-05-01 14:02 | 42.91577 | -1.59943 | 37161 ft | 436 kts | 205° |
| 2026-05-01 14:02 | 42.85990 | -1.63101 | 37160 ft | 436 kts | 205° |
| 2026-05-01 14:03 | 42.80381 | -1.66263 | 37159 ft | 436 kts | 204° |
| 2026-05-01 14:03 | 42.74772 | -1.69423 | 37152 ft | 437 kts | 205° |
| 2026-05-01 14:04 | 42.69327 | -1.72920 | 37146 ft | 436 kts | 208° |
| 2026-05-01 14:04 | 42.63882 | -1.76574 | 37147 ft | 436 kts | 208° |
| 2026-05-01 14:05 | 42.58452 | -1.80218 | 37138 ft | 435 kts | 208° |
| 2026-05-01 14:05 | 42.53054 | -1.83840 | 37130 ft | 436 kts | 208° |
| 2026-05-01 14:06 | 42.47640 | -1.87468 | 37124 ft | 436 kts | 208° |
| 2026-05-01 14:06 | 42.42221 | -1.91088 | 37116 ft | 436 kts | 208° |
| 2026-05-01 14:07 | 42.36771 | -1.94719 | 37118 ft | 436 kts | 208° |
| 2026-05-01 14:08 | 42.28645 | -2.00130 | 37118 ft | 436 kts | 208° |
| 2026-05-01 14:08 | 42.23208 | -2.03738 | 37123 ft | 436 kts | 208° |
| 2026-05-01 14:08 | 42.20498 | -2.05526 | 36955 ft | 434 kts | 208° |
| 2026-05-01 14:09 | 42.17771 | -2.07325 | 37084 ft | 435 kts | 208° |
| 2026-05-01 14:09 | 42.12338 | -2.10905 | 37136 ft | 437 kts | 208° |
| 2026-05-01 14:10 | 42.06885 | -2.14494 | 37149 ft | 437 kts | 208° |
| 2026-05-01 14:10 | 42.01461 | -2.18060 | 37153 ft | 437 kts | 208° |
| 2026-05-01 14:11 | 41.95992 | -2.21652 | 37158 ft | 437 kts | 208° |
| 2026-05-01 14:11 | 41.87810 | -2.27015 | 37165 ft | 437 kts | 208° |
| 2026-05-01 14:12 | 41.82367 | -2.30573 | 37162 ft | 437 kts | 208° |
| 2026-05-01 14:12 | 41.76939 | -2.34115 | 37166 ft | 436 kts | 208° |
| 2026-05-01 14:13 | 41.72402 | -2.37073 | 37168 ft | 436 kts | 208° |
| 2026-05-01 14:13 | 41.66033 | -2.41216 | 37166 ft | 436 kts | 208° |
| 2026-05-01 14:14 | 41.60614 | -2.44734 | 37165 ft | 436 kts | 208° |
| 2026-05-01 14:14 | 41.55180 | -2.48258 | 37159 ft | 435 kts | 208° |
| 2026-05-01 14:15 | 41.49755 | -2.51765 | 37154 ft | 435 kts | 208° |
| 2026-05-01 14:15 | 41.47001 | -2.53540 | 37439 ft | 436 kts | 208° |
| 2026-05-01 14:15 | 41.44303 | -2.55280 | 37251 ft | 434 kts | 208° |
| 2026-05-01 14:16 | 41.38860 | -2.58785 | 37173 ft | 434 kts | 208° |
| 2026-05-01 14:16 | 41.33490 | -2.62364 | 37162 ft | 433 kts | 212° |
| 2026-05-01 14:17 | 41.28408 | -2.66584 | 37161 ft | 431 kts | 217° |
| 2026-05-01 14:17 | 41.23502 | -2.71098 | 37162 ft | 431 kts | 217° |
| 2026-05-01 14:18 | 41.18594 | -2.75606 | 37151 ft | 431 kts | 217° |
| 2026-05-01 14:18 | 41.14487 | -2.79374 | 37152 ft | 431 kts | 217° |
| 2026-05-01 14:19 | 41.08740 | -2.84638 | 37150 ft | 430 kts | 217° |
| 2026-05-01 14:19 | 41.03842 | -2.89117 | 37145 ft | 430 kts | 217° |
| 2026-05-01 14:20 | 40.96452 | -2.95859 | 37138 ft | 430 kts | 217° |
| 2026-05-01 14:21 | 40.91561 | -3.00308 | 37138 ft | 430 kts | 217° |
| 2026-05-01 14:21 | 40.86622 | -3.04796 | 37137 ft | 430 kts | 217° |
| 2026-05-01 14:22 | 40.79263 | -3.11463 | 37138 ft | 429 kts | 217° |
| 2026-05-01 14:22 | 40.74336 | -3.15918 | 37135 ft | 429 kts | 217° |
| 2026-05-01 14:23 | 40.69420 | -3.20356 | 37138 ft | 429 kts | 217° |
| 2026-05-01 14:23 | 40.64525 | -3.24768 | 37136 ft | 429 kts | 217° |
| 2026-05-01 14:24 | 40.59582 | -3.29212 | 37143 ft | 429 kts | 217° |
| 2026-05-01 14:24 | 40.54683 | -3.33611 | 37145 ft | 429 kts | 217° |
| 2026-05-01 14:25 | 40.49757 | -3.38025 | 37144 ft | 428 kts | 217° |
| 2026-05-01 14:25 | 40.44846 | -3.42417 | 37140 ft | 428 kts | 217° |
| 2026-05-01 14:26 | 40.37490 | -3.48985 | 37134 ft | 427 kts | 217° |
| 2026-05-01 14:27 | 40.32304 | -3.52779 | 37124 ft | 435 kts | 201° |
| 2026-05-01 14:27 | 40.26315 | -3.54214 | 37129 ft | 441 kts | 191° |
| 2026-05-01 14:28 | 40.17221 | -3.55765 | 37125 ft | 437 kts | 199° |
| 2026-05-01 14:28 | 40.11686 | -3.58756 | 37128 ft | 429 kts | 215° |
| 2026-05-01 14:29 | 40.07074 | -3.63495 | 37122 ft | 423 kts | 226° |
| 2026-05-01 14:30 | 39.98513 | -3.74017 | 37095 ft | 423 kts | 226° |
| 2026-05-01 14:31 | 39.92096 | -3.81861 | 37088 ft | 423 kts | 227° |
| 2026-05-01 14:31 | 39.87807 | -3.87095 | 37089 ft | 423 kts | 227° |
| 2026-05-01 14:32 | 39.83517 | -3.92319 | 37097 ft | 422 kts | 227° |
| 2026-05-01 14:32 | 39.79239 | -3.97517 | 37098 ft | 421 kts | 227° |
| 2026-05-01 14:33 | 39.75010 | -4.02716 | 37104 ft | 419 kts | 227° |
| 2026-05-01 14:33 | 39.70575 | -4.07640 | 37108 ft | 422 kts | 223° |
| 2026-05-01 14:34 | 39.65762 | -4.12014 | 37111 ft | 423 kts | 219° |
| 2026-05-01 14:34 | 39.60915 | -4.16253 | 37114 ft | 423 kts | 220° |
| 2026-05-01 14:35 | 39.56037 | -4.20496 | 37115 ft | 422 kts | 220° |
| 2026-05-01 14:35 | 39.51176 | -4.24706 | 37117 ft | 422 kts | 220° |
| 2026-05-01 14:36 | 39.46304 | -4.28915 | 37116 ft | 421 kts | 220° |
| 2026-05-01 14:36 | 39.41444 | -4.33110 | 37112 ft | 420 kts | 220° |
| 2026-05-01 14:37 | 39.36617 | -4.37267 | 37110 ft | 419 kts | 220° |
| 2026-05-01 14:37 | 39.31770 | -4.41434 | 37111 ft | 419 kts | 220° |
| 2026-05-01 14:38 | 39.26925 | -4.45597 | 37115 ft | 418 kts | 220° |
| 2026-05-01 14:38 | 39.22116 | -4.49713 | 37114 ft | 417 kts | 221° |
| 2026-05-01 14:39 | 39.17297 | -4.53827 | 37110 ft | 417 kts | 221° |
| 2026-05-01 14:39 | 39.12490 | -4.57928 | 37114 ft | 415 kts | 221° |
| 2026-05-01 14:40 | 39.07672 | -4.62036 | 37107 ft | 415 kts | 221° |
| 2026-05-01 14:40 | 39.02864 | -4.66130 | 37113 ft | 413 kts | 220° |
| 2026-05-01 14:41 | 38.98103 | -4.70167 | 37105 ft | 412 kts | 221° |
| 2026-05-01 14:41 | 38.93305 | -4.74223 | 37106 ft | 412 kts | 221° |
| 2026-05-01 14:42 | 38.88548 | -4.78244 | 37100 ft | 413 kts | 221° |
| 2026-05-01 14:42 | 38.83747 | -4.82300 | 37101 ft | 413 kts | 221° |
| 2026-05-01 14:43 | 38.78959 | -4.86337 | 37100 ft | 413 kts | 221° |
| 2026-05-01 14:43 | 38.74184 | -4.90359 | 37097 ft | 411 kts | 221° |
| 2026-05-01 14:44 | 38.69422 | -4.94361 | 37091 ft | 412 kts | 221° |
| 2026-05-01 14:44 | 38.62246 | -5.00388 | 37096 ft | 410 kts | 221° |
| 2026-05-01 14:45 | 38.55111 | -5.06362 | 36671 ft | 409 kts | 221° |
| 2026-05-01 14:45 | 38.52729 | -5.08327 | 36137 ft | 407 kts | 220° |
| 2026-05-01 14:46 | 38.50296 | -5.10149 | 35476 ft | 408 kts | 217° |
| 2026-05-01 14:46 | 38.45200 | -5.13421 | 33838 ft | 414 kts | 214° |
| 2026-05-01 14:46 | 38.42636 | -5.15024 | 33077 ft | 415 kts | 213° |
| 2026-05-01 14:47 | 38.40046 | -5.16639 | 32263 ft | 418 kts | 213° |
| 2026-05-01 14:47 | 38.37452 | -5.18254 | 31440 ft | 420 kts | 213° |
| 2026-05-01 14:47 | 38.34824 | -5.19885 | 30870 ft | 416 kts | 213° |
| 2026-05-01 14:48 | 38.29693 | -5.23059 | 29807 ft | 409 kts | 213° |
| 2026-05-01 14:48 | 38.27133 | -5.24642 | 29311 ft | 404 kts | 212° |
| 2026-05-01 14:48 | 38.22156 | -5.27719 | 28363 ft | 395 kts | 212° |
| 2026-05-01 14:49 | 38.17258 | -5.30743 | 27393 ft | 388 kts | 212° |
| 2026-05-01 14:49 | 38.12489 | -5.33683 | 26458 ft | 380 kts | 212° |
| 2026-05-01 14:50 | 38.08552 | -5.36108 | 25683 ft | 374 kts | 212° |
| 2026-05-01 14:50 | 38.03149 | -5.39434 | 24598 ft | 366 kts | 211° |
| 2026-05-01 14:51 | 38.00893 | -5.40819 | 24136 ft | 363 kts | 211° |
| 2026-05-01 14:51 | 37.96399 | -5.43576 | 23213 ft | 357 kts | 211° |
| 2026-05-01 14:52 | 37.91958 | -5.46300 | 22298 ft | 353 kts | 211° |
| 2026-05-01 14:52 | 37.89755 | -5.47649 | 21840 ft | 351 kts | 211° |
| 2026-05-01 14:52 | 37.85370 | -5.50334 | 20912 ft | 348 kts | 210° |
| 2026-05-01 14:53 | 37.83202 | -5.51660 | 20446 ft | 346 kts | 210° |
| 2026-05-01 14:53 | 37.81049 | -5.52975 | 19984 ft | 344 kts | 210° |
| 2026-05-01 14:53 | 37.78890 | -5.54291 | 19514 ft | 343 kts | 210° |
| 2026-05-01 14:53 | 37.76769 | -5.55584 | 19051 ft | 342 kts | 209° |
| 2026-05-01 14:54 | 37.74615 | -5.56896 | 18577 ft | 340 kts | 209° |
| 2026-05-01 14:54 | 37.72512 | -5.58177 | 18115 ft | 339 kts | 209° |
| 2026-05-01 14:54 | 37.70383 | -5.59473 | 17645 ft | 338 kts | 209° |
| 2026-05-01 14:54 | 37.68285 | -5.60748 | 17186 ft | 336 kts | 209° |
| 2026-05-01 14:55 | 37.66194 | -5.62020 | 16722 ft | 335 kts | 208° |
| 2026-05-01 14:55 | 37.64089 | -5.63300 | 16257 ft | 333 kts | 208° |
| 2026-05-01 14:55 | 37.62031 | -5.64549 | 15816 ft | 331 kts | 208° |
| 2026-05-01 14:55 | 37.59949 | -5.65812 | 15362 ft | 330 kts | 207° |
| 2026-05-01 14:56 | 37.57887 | -5.67063 | 14917 ft | 328 kts | 207° |
| 2026-05-01 14:56 | 37.55832 | -5.68310 | 14481 ft | 326 kts | 207° |
| 2026-05-01 14:56 | 37.53801 | -5.69541 | 14039 ft | 325 kts | 206° |
| 2026-05-01 14:56 | 37.51767 | -5.70774 | 13589 ft | 323 kts | 206° |
| 2026-05-01 14:57 | 37.49741 | -5.71999 | 13152 ft | 321 kts | 206° |
| 2026-05-01 14:57 | 37.45746 | -5.74411 | 12259 ft | 318 kts | 206° |
| 2026-05-01 14:57 | 37.43747 | -5.75597 | 11818 ft | 316 kts | 204° |
| 2026-05-01 14:58 | 37.41716 | -5.76618 | 11365 ft | 314 kts | 200° |
| 2026-05-01 14:58 | 37.39647 | -5.77486 | 10886 ft | 314 kts | 198° |
| 2026-05-01 14:58 | 37.37589 | -5.78330 | 10470 ft | 310 kts | 198° |
| 2026-05-01 14:58 | 37.35571 | -5.79157 | 10220 ft | 300 kts | 198° |
| 2026-05-01 14:59 | 37.33643 | -5.79946 | 10111 ft | 286 kts | 198° |
| 2026-05-01 14:59 | 37.31783 | -5.80707 | 10032 ft | 273 kts | 198° |
| 2026-05-01 14:59 | 37.29994 | -5.81440 | 9734 ft | 270 kts | 198° |
| 2026-05-01 14:59 | 37.28234 | -5.82161 | 9375 ft | 268 kts | 198° |
| 2026-05-01 15:00 | 37.24702 | -5.83606 | 8673 ft | 265 kts | 198° |
| 2026-05-01 15:00 | 37.22952 | -5.84322 | 8332 ft | 263 kts | 198° |
| 2026-05-01 15:00 | 37.21222 | -5.85029 | 8000 ft | 262 kts | 198° |
| 2026-05-01 15:01 | 37.19487 | -5.85738 | 7665 ft | 260 kts | 198° |
| 2026-05-01 15:01 | 37.17780 | -5.86436 | 7330 ft | 258 kts | 197° |
| 2026-05-01 15:01 | 37.16071 | -5.87133 | 6991 ft | 258 kts | 197° |
| 2026-05-01 15:01 | 37.14380 | -5.87822 | 6658 ft | 257 kts | 197° |
| 2026-05-01 15:02 | 37.12678 | -5.88516 | 6323 ft | 256 kts | 197° |
| 2026-05-01 15:02 | 37.11561 | -5.88971 | 6109 ft | 255 kts | 197° |
| 2026-05-01 15:02 | 37.09315 | -5.89883 | 5681 ft | 253 kts | 197° |
| 2026-05-01 15:02 | 37.07658 | -5.90555 | 5356 ft | 252 kts | 198° |
| 2026-05-01 15:03 | 37.05994 | -5.91232 | 5055 ft | 250 kts | 198° |
| 2026-05-01 15:03 | 37.04378 | -5.91890 | 4968 ft | 238 kts | 198° |
| 2026-05-01 15:03 | 37.02835 | -5.92518 | 4964 ft | 224 kts | 197° |
| 2026-05-01 15:03 | 37.01408 | -5.93117 | 4954 ft | 216 kts | 199° |
| 2026-05-01 15:04 | 36.99975 | -5.93749 | 4887 ft | 215 kts | 198° |
| 2026-05-01 15:04 | 36.98568 | -5.94340 | 4723 ft | 212 kts | 198° |
| 2026-05-01 15:04 | 36.97182 | -5.94948 | 4450 ft | 211 kts | 199° |
| 2026-05-01 15:04 | 36.95812 | -5.95582 | 4177 ft | 209 kts | 200° |
| 2026-05-01 15:05 | 36.94482 | -5.96219 | 3899 ft | 201 kts | 201° |
| 2026-05-01 15:05 | 36.93213 | -5.96838 | 3645 ft | 192 kts | 201° |
| 2026-05-01 15:05 | 36.92026 | -5.97422 | 3489 ft | 177 kts | 201° |
| 2026-05-01 15:05 | 36.90894 | -5.97979 | 3243 ft | 172 kts | 201° |
| 2026-05-01 15:06 | 36.89796 | -5.98519 | 3016 ft | 171 kts | 201° |
| 2026-05-01 15:06 | 36.88680 | -5.99069 | 2790 ft | 170 kts | 201° |
| 2026-05-01 15:06 | 36.87585 | -5.99607 | 2568 ft | 170 kts | 201° |
| 2026-05-01 15:06 | 36.86476 | -6.00150 | 2345 ft | 169 kts | 201° |
| 2026-05-01 15:07 | 36.85378 | -6.00687 | 2143 ft | 169 kts | 201° |
| 2026-05-01 15:07 | 36.84287 | -6.01219 | 1915 ft | 169 kts | 201° |
| 2026-05-01 15:07 | 36.83190 | -6.01754 | 1687 ft | 169 kts | 201° |
| 2026-05-01 15:07 | 36.82136 | -6.02270 | 1467 ft | 156 kts | 201° |
| 2026-05-01 15:08 | 36.81164 | -6.02743 | 1251 ft | 142 kts | 203° |
| 2026-05-01 15:08 | 36.80287 | -6.03170 | 1070 ft | 131 kts | 203° |
| 2026-05-01 15:08 | 36.79442 | -6.03577 | 926 ft | 131 kts | 201° |
| 2026-05-01 15:08 | 36.78587 | -6.04001 | 774 ft | 132 kts | 204° |
| 2026-05-01 15:09 | 36.77727 | -6.04426 | 589 ft | 133 kts | 204° |
| 2026-05-01 15:09 | 36.76880 | -6.04847 | 432 ft | 130 kts | 203° |
| 2026-05-01 15:09 | 36.76039 | -6.05243 | 269 ft | 130 kts | 202° |
| 2026-05-01 15:09 | 36.75201 | -6.05653 | 135 ft | 129 kts | 201° |
| 2026-05-01 15:10 | 36.74433 | -6.06032 | 86 ft | 95 kts | 200° |
| 2026-05-01 15:10 | 36.74006 | -6.06380 | 82 ft | 10 kts | 257° |
| 2026-05-01 15:10 | 36.74050 | -6.06429 | 82 ft | 11 kts | 17° |
| 2026-05-01 15:11 | 36.74125 | -6.06394 | 83 ft | 11 kts | 22° |
| 2026-05-01 15:11 | 36.74278 | -6.06319 | 85 ft | 12 kts | 20° |
| 2026-05-01 15:11 | 36.74356 | -6.06281 | 86 ft | 12 kts | 22° |
| 2026-05-01 15:12 | 36.74437 | -6.06242 | 87 ft | 12 kts | 21° |
| 2026-05-01 15:12 | 36.74609 | -6.06158 | 88 ft | 13 kts | 21° |
| 2026-05-01 15:12 | 36.74696 | -6.06116 | 89 ft | 11 kts | 21° |
| 2026-05-01 15:13 | 36.74866 | -6.06255 | 91 ft | 12 kts | 23° |
| 2026-05-01 15:14 | 36.74929 | -6.06311 | 91 ft | 6 kts | 292° |
| 2026-05-01 15:14 | 36.74934 | -6.06327 | 91 ft | 0 kts | 291° |